Time;durP1;ratioP1;P1;durP2;ratioP2;P2;SDS_P1;SDS_P2;PMS_P1;PMS_P2;Temp;Humidity;BMP_temperature;BMP_pressure;BME280_temperature;BME280_humidity;BME280_pressure;Samples;Min_cycle;Max_cycle;Signal;HPM_P1;HPM_P2
2021/11/25 00:02:07;;;;;;;25.08;16.35;;;;;;;6.18;63.64;95551.03;4908100;29;20052;-78
2021/11/25 00:04:32;;;;;;;26.42;15.88;;;;;;;6.06;63.66;95557.69;4911066;29;20048;-78
2021/11/25 00:06:58;;;;;;;22.67;15.70;;;;;;;5.93;65.08;95545.47;4903199;29;20037;-77
2021/11/25 00:09:24;;;;;;;22.63;15.93;;;;;;;6.05;64.50;95545.78;4884786;29;20041;-79
2021/11/25 00:11:49;;;;;;;22.70;16.23;;;;;;;6.06;64.70;95548.16;4873603;29;20042;-79
2021/11/25 00:14:15;;;;;;;26.08;16.15;;;;;;;6.22;63.69;95544.53;4889409;29;20082;-79
2021/11/25 00:16:40;;;;;;;23.98;15.18;;;;;;;6.20;63.93;95543.91;4890712;29;20033;-79
2021/11/25 00:19:11;;;;;;;20.25;14.70;;;;;;;6.04;64.67;95549.34;4890363;29;20394;-79
2021/11/25 00:21:37;;;;;;;21.77;15.00;;;;;;;6.19;64.15;95544.91;4873087;29;20040;-78
2021/11/25 00:24:04;;;;;;;33.15;16.52;;;;;;;6.22;63.83;95549.69;4889325;29;20545;-78
2021/11/25 00:26:35;;;;;;;26.65;15.65;;;;;;;6.24;63.72;95558.06;4872908;29;20493;-79
2021/11/25 00:29:02;;;;;;;20.33;14.65;;;;;;;6.36;63.83;95550.59;4888412;29;20496;-79
2021/11/25 00:31:34;;;;;;;19.75;14.30;;;;;;;6.40;63.37;95554.41;4872976;29;20060;-80
2021/11/25 00:33:59;;;;;;;20.27;14.25;;;;;;;6.43;63.13;95554.81;4865435;29;20056;-79
2021/11/25 00:36:25;;;;;;;24.65;14.50;;;;;;;6.32;63.68;95553.53;4890833;29;20041;-79
2021/11/25 00:38:50;;;;;;;25.15;14.85;;;;;;;6.38;63.15;95557.16;4858241;29;20069;-79
2021/11/25 00:41:16;;;;;;;21.13;14.27;;;;;;;6.39;63.36;95558.75;4874170;29;20508;-79
2021/11/25 00:43:42;;;;;;;19.75;13.77;;;;;;;6.44;63.30;95556.41;4857206;29;20446;-79
2021/11/25 00:46:07;;;;;;;16.77;13.30;;;;;;;6.48;63.27;95560.22;4865177;29;20064;-79
2021/11/25 00:48:33;;;;;;;20.38;14.45;;;;;;;6.35;63.51;95551.59;4889573;29;20107;-79
2021/11/25 00:50:59;;;;;;;19.50;14.45;;;;;;;6.32;64.19;95555.31;4871453;29;20040;-79
2021/11/25 00:53:24;;;;;;;18.48;13.40;;;;;;;6.38;63.90;95552.00;4873172;29;20037;-79
2021/11/25 00:55:52;;;;;;;21.02;13.75;;;;;;;6.41;63.53;95554.22;4871933;29;20431;-79
2021/11/25 00:58:20;;;;;;;20.13;14.10;;;;;;;6.41;63.63;95546.47;4888061;29;20105;-79
2021/11/25 01:00:51;;;;;;;21.05;14.40;;;;;;;6.45;63.61;95542.50;4888729;29;20037;-79
2021/11/25 01:03:16;;;;;;;17.77;12.80;;;;;;;6.49;63.22;95548.88;4889062;29;20768;-79
2021/11/25 01:05:42;;;;;;;17.92;13.50;;;;;;;6.35;63.69;95542.06;4888538;29;20045;-79
2021/11/25 01:08:07;;;;;;;21.10;14.48;;;;;;;6.38;63.63;95533.91;4955371;23;20066;-79
2021/11/25 01:10:33;;;;;;;20.35;13.80;;;;;;;6.28;63.72;95536.03;4862437;29;20037;-79
2021/11/25 01:13:01;;;;;;;21.60;13.15;;;;;;;6.29;64.62;95535.03;4879425;29;20109;-79
2021/11/25 01:15:30;;;;;;;22.90;14.02;;;;;;;6.24;64.60;95535.59;4882923;29;20029;-79
2021/11/25 01:18:14;;;;;;;21.48;13.68;;;;;;;6.26;64.69;95527.66;4881666;29;20041;-79
2021/11/25 01:20:41;;;;;;;18.48;13.60;;;;;;;6.34;64.28;95524.94;4883728;29;20132;-79
2021/11/25 01:23:09;;;;;;;19.95;12.40;;;;;;;6.33;64.30;95524.13;4885752;29;20085;-79
2021/11/25 01:25:34;;;;;;;24.25;13.20;;;;;;;6.24;65.00;95524.47;4887166;29;20044;-79
2021/11/25 01:28:00;;;;;;;18.08;13.48;;;;;;;6.23;65.10;95528.84;4935362;23;20085;-79
2021/11/25 01:30:25;;;;;;;18.65;12.75;;;;;;;6.20;64.76;95523.25;4945017;29;20035;-78
2021/11/25 01:32:51;;;;;;;18.98;13.60;;;;;;;6.18;65.26;95525.19;4937416;29;20123;-79
2021/11/25 01:35:16;;;;;;;16.20;13.02;;;;;;;6.23;64.86;95523.69;4923696;29;20060;-79
2021/11/25 01:37:42;;;;;;;15.98;11.98;;;;;;;6.22;65.35;95522.09;4920308;29;20062;-79
2021/11/25 01:40:10;;;;;;;19.15;13.27;;;;;;;6.29;64.49;95511.78;4917039;29;20506;-78
2021/11/25 01:42:36;;;;;;;19.75;13.95;;;;;;;6.26;64.68;95512.16;4919263;29;20036;-79
2021/11/25 01:45:01;;;;;;;20.05;13.88;;;;;;;6.40;64.08;95524.19;4918356;29;20035;-79
2021/11/25 01:47:27;;;;;;;18.55;13.60;;;;;;;6.30;64.64;95519.34;4902158;29;20032;-78
2021/11/25 01:49:52;;;;;;;22.48;15.20;;;;;;;6.33;64.58;95523.34;4903313;29;20492;-78
2021/11/25 01:52:18;;;;;;;18.38;14.43;;;;;;;6.26;64.40;95523.28;4901951;29;20467;-79
2021/11/25 01:54:43;;;;;;;22.05;16.00;;;;;;;6.31;64.38;95526.09;4903381;29;20481;-78
2021/11/25 01:57:09;;;;;;;20.85;16.27;;;;;;;6.12;64.63;95521.59;4903211;29;20485;-78
2021/11/25 01:59:36;;;;;;;21.33;16.48;;;;;;;6.04;64.74;95528.69;4902242;29;20123;-78
2021/11/25 02:02:03;;;;;;;23.88;18.02;;;;;;;5.87;65.44;95523.75;4902330;29;20052;-78
2021/11/25 02:04:28;;;;;;;22.40;16.35;;;;;;;5.92;65.78;95521.44;4919420;29;20032;-78
2021/11/25 02:06:54;;;;;;;21.95;16.77;;;;;;;6.01;65.01;95522.88;4902720;29;20043;-78
2021/11/25 02:09:19;;;;;;;22.05;15.55;;;;;;;5.92;64.97;95520.63;4901683;29;20036;-79
2021/11/25 02:11:45;;;;;;;21.80;16.83;;;;;;;5.90;65.49;95518.25;4918924;29;20036;-79
2021/11/25 02:14:10;;;;;;;24.10;17.63;;;;;;;6.01;65.22;95509.97;4917766;29;20107;-79
2021/11/25 02:16:37;;;;;;;26.92;17.27;;;;;;;6.14;64.20;95509.28;4919122;29;20043;-78
2021/11/25 02:19:02;;;;;;;23.85;18.10;;;;;;;6.13;64.29;95514.66;4918187;29;20024;-78
2021/11/25 02:21:28;;;;;;;24.90;17.65;;;;;;;5.96;65.13;95491.69;4900583;29;20036;-78
2021/11/25 02:23:53;;;;;;;24.92;18.73;;;;;;;6.02;64.84;95505.63;4900710;29;20158;-79
2021/11/25 02:26:35;;;;;;;23.50;18.08;;;;;;;6.05;64.78;95494.13;4917933;29;20043;-78
2021/11/25 02:29:03;;;;;;;26.98;20.08;;;;;;;6.19;64.23;95495.84;4900734;29;20040;-79
2021/11/25 02:31:28;;;;;;;26.05;18.30;;;;;;;6.19;64.19;95495.84;4921770;29;20044;-78
2021/11/25 02:33:54;;;;;;;26.60;19.95;;;;;;;6.30;64.27;95495.31;4900499;29;20040;-79
2021/11/25 02:36:19;;;;;;;26.08;19.48;;;;;;;6.28;63.81;95494.69;4901472;29;20079;-79
2021/11/25 02:38:44;;;;;;;30.45;20.60;;;;;;;6.34;64.10;95509.44;4919019;29;20036;-79
2021/11/25 02:41:10;;;;;;;37.30;21.13;;;;;;;6.38;63.36;95502.13;4885382;29;20032;-79
2021/11/25 02:43:36;;;;;;;35.63;21.45;;;;;;;6.42;63.28;95503.34;4919497;29;20070;-78
2021/11/25 02:46:05;;;;;;;29.08;19.92;;;;;;;6.48;62.69;95500.00;4885799;29;20032;-80
2021/11/25 02:48:42;;;;;;;34.25;22.75;;;;;;;6.50;62.83;95498.81;4901597;29;20040;-79
2021/11/25 02:51:07;;;;;;;31.20;20.90;;;;;;;6.37;63.10;95498.75;4887215;29;20628;-79
2021/11/25 02:53:33;;;;;;;31.30;21.40;;;;;;;6.31;63.28;95495.13;4886081;29;20123;-78
2021/11/25 02:56:10;;;;;;;31.38;21.52;;;;;;;6.44;62.74;95494.41;4900888;29;20637;-78
2021/11/25 02:58:35;;;;;;;30.40;20.63;;;;;;;6.41;63.41;95489.63;4918819;29;20040;-78
2021/11/25 03:01:07;;;;;;;28.42;20.23;;;;;;;6.48;62.33;95490.44;4919255;29;20036;-78
2021/11/25 03:03:33;;;;;;;32.13;21.52;;;;;;;6.52;62.37;95485.72;4918217;29;20032;-78
2021/11/25 03:05:58;;;;;;;29.27;20.67;;;;;;;6.39;63.13;95494.19;4916495;29;20035;-78
2021/11/25 03:08:24;;;;;;;31.77;22.45;;;;;;;6.47;63.23;95488.84;4917148;29;20036;-78
2021/11/25 03:10:52;;;;;;;33.10;21.50;;;;;;;6.48;62.52;95490.44;4916194;29;20032;-78
2021/11/25 03:15:46;;;;;;;30.33;21.50;;;;;;;6.22;63.23;95487.72;4915496;23;20064;-78
2021/11/25 03:18:12;;;;;;;29.38;21.42;;;;;;;6.22;63.47;95488.50;4897234;29;20480;-78
2021/11/25 03:20:38;;;;;;;31.15;22.23;;;;;;;5.95;64.14;95484.91;4887075;29;20421;-78
2021/11/25 03:23:05;;;;;;;32.38;21.48;;;;;;;5.95;63.66;95484.91;4898695;29;20056;-77
2021/11/25 03:25:31;;;;;;;30.20;21.60;;;;;;;5.96;64.69;95485.72;4904479;29;20048;-78
2021/11/25 03:27:57;;;;;;;29.60;21.67;;;;;;;5.83;64.63;95485.56;4977273;23;20039;-78
2021/11/25 03:30:22;;;;;;;30.65;21.40;;;;;;;5.89;64.41;95479.69;4891417;29;20493;-78
2021/11/25 03:32:51;;;;;;;30.60;21.58;;;;;;;5.92;64.18;95481.91;4887871;29;20041;-78
2021/11/25 03:35:22;;;;;;;32.03;21.23;;;;;;;5.83;64.98;95470.88;4891091;29;20036;-78
2021/11/25 03:37:48;;;;;;;27.48;19.17;;;;;;;5.95;64.32;95469.44;4893638;29;20029;-78
2021/11/25 03:40:13;;;;;;;29.27;21.00;;;;;;;6.01;63.77;95466.09;4886555;29;20565;-77
2021/11/25 03:42:39;;;;;;;33.55;22.15;;;;;;;6.03;64.24;95470.28;4884793;29;20473;-78
2021/11/25 03:45:06;;;;;;;29.08;21.38;;;;;;;6.12;64.02;95479.47;4853493;29;20041;-78
2021/11/25 03:47:34;;;;;;;31.70;20.40;;;;;;;5.98;64.01;95463.88;4869695;29;20056;-78
2021/11/25 03:49:59;;;;;;;31.67;21.02;;;;;;;5.98;64.00;95478.56;4868675;29;20618;-78
2021/11/25 03:52:25;;;;;;;27.15;20.08;;;;;;;6.12;63.97;95469.16;4886504;29;20040;-78
2021/11/25 03:54:54;;;;;;;28.45;21.50;;;;;;;6.22;62.77;95469.63;4886996;29;20067;-78
2021/11/25 03:57:21;;;;;;;30.83;21.52;;;;;;;6.15;63.53;95463.59;4886831;29;20025;-78
2021/11/25 03:59:47;;;;;;;28.23;20.90;;;;;;;6.27;63.08;95462.09;4887063;29;20037;-77
2021/11/25 04:02:12;;;;;;;32.63;20.98;;;;;;;6.21;63.09;95460.28;4855928;29;20036;-78
2021/11/25 04:04:38;;;;;;;35.28;21.35;;;;;;;6.20;63.45;95464.66;4887221;29;20040;-78
2021/11/25 04:07:04;;;;;;;29.00;22.05;;;;;;;6.15;63.07;95459.25;4886680;29;20033;-78
2021/11/25 04:09:29;;;;;;;30.60;21.15;;;;;;;6.14;62.93;95462.81;4869734;29;20040;-78
2021/11/25 04:11:54;;;;;;;29.23;20.73;;;;;;;6.14;63.99;95457.66;4870395;29;20045;-78
2021/11/25 04:14:20;;;;;;;28.08;20.13;;;;;;;6.15;63.44;95461.03;4885519;29;20060;-78
2021/11/25 04:16:45;;;;;;;28.13;19.75;;;;;;;5.93;63.57;95461.06;4885149;29;20064;-78
2021/11/25 04:19:11;;;;;;;29.45;20.17;;;;;;;5.89;63.58;95449.50;4871951;29;20040;-78
2021/11/25 04:21:36;;;;;;;30.45;20.13;;;;;;;5.79;64.24;95443.84;4879107;29;20036;-79
2021/11/25 04:24:02;;;;;;;30.50;21.10;;;;;;;5.82;64.12;95447.84;4888868;29;20037;-79
2021/11/25 04:26:28;;;;;;;28.33;19.80;;;;;;;5.66;64.37;95449.69;4873347;29;20096;-79
2021/11/25 04:28:53;;;;;;;29.38;21.25;;;;;;;5.60;64.90;95449.66;4873168;29;20051;-79
2021/11/25 04:36:49;;;;;;;32.13;21.95;;;;;;;5.37;65.39;95455.00;4885377;29;20461;-77
2021/11/25 04:39:14;;;;;;;26.63;20.88;;;;;;;5.34;65.34;95456.13;4854701;29;20657;-81
2021/11/25 04:41:40;;;;;;;27.60;20.27;;;;;;;5.23;66.28;95454.06;4885034;29;20036;-77
2021/11/25 04:44:06;;;;;;;31.10;20.40;;;;;;;5.19;66.52;95463.13;4885944;29;20032;-78
2021/11/25 04:46:31;;;;;;;26.40;19.52;;;;;;;5.24;65.96;95458.25;4855163;29;20482;-80
2021/11/25 04:48:57;;;;;;;27.15;18.92;;;;;;;5.19;66.26;95459.75;4839553;29;20039;-78
2021/11/25 04:51:22;;;;;;;28.33;20.25;;;;;;;5.09;66.09;95458.28;4868477;29;20037;-78
2021/11/25 04:53:47;;;;;;;27.23;19.75;;;;;;;4.99;67.14;95455.19;4887236;29;20051;-78
2021/11/25 04:56:13;;;;;;;30.30;20.40;;;;;;;5.09;66.12;95455.69;4887859;29;20039;-77
2021/11/25 04:58:38;;;;;;;27.48;19.42;;;;;;;4.99;66.61;95472.41;4884579;29;20029;-77
2021/11/25 05:01:06;;;;;;;27.77;18.85;;;;;;;5.08;66.08;95454.09;4885924;29;20036;-81
2021/11/25 05:03:32;;;;;;;28.35;20.42;;;;;;;4.97;66.68;95454.56;4886900;29;20528;-77
2021/11/25 05:05:57;;;;;;;26.65;18.30;;;;;;;4.99;67.16;95454.38;4884706;29;20032;-77
2021/11/25 05:08:23;;;;;;;29.00;19.77;;;;;;;4.98;67.26;95450.22;4867677;29;20043;-77
2021/11/25 05:10:48;;;;;;;31.25;19.55;;;;;;;5.06;66.15;95450.91;4867639;29;20445;-77
2021/11/25 05:13:14;;;;;;;28.77;19.00;;;;;;;5.01;67.41;95445.47;4853105;29;20120;-77
2021/11/25 05:15:40;;;;;;;31.67;19.55;;;;;;;4.99;66.93;95465.47;4885122;29;20041;-77
2021/11/25 05:18:05;;;;;;;33.03;18.50;;;;;;;5.10;67.01;95456.50;4867185;29;20045;-77
2021/11/25 05:20:31;;;;;;;31.45;20.10;;;;;;;5.21;66.40;95455.22;4867822;29;20120;-77
2021/11/25 05:22:56;;;;;;;27.25;18.92;;;;;;;5.12;66.89;95451.94;4885166;29;20053;-77
2021/11/25 05:25:22;;;;;;;33.20;20.08;;;;;;;5.29;66.14;95444.78;4866423;29;20470;-77
2021/11/25 05:27:50;;;;;;;30.50;18.98;;;;;;;5.43;65.58;95452.47;4870627;29;20045;-77
2021/11/25 05:30:16;;;;;;;28.52;19.48;;;;;;;5.48;65.79;95451.13;4868266;29;20136;-77
2021/11/25 05:32:42;;;;;;;29.35;18.90;;;;;;;5.49;65.36;95453.50;4886438;29;20204;-77
2021/11/25 05:35:09;;;;;;;31.00;19.23;;;;;;;5.45;65.84;95459.22;4868320;29;20073;-77
2021/11/25 05:37:34;;;;;;;30.33;19.23;;;;;;;5.48;65.69;95461.44;4868597;29;20036;-77
2021/11/25 05:42:33;;;;;;;25.83;18.92;;;;;;;5.52;65.72;95450.56;4916676;23;20079;-77
2021/11/25 05:44:59;;;;;;;27.10;18.02;;;;;;;5.62;65.27;95453.63;4894851;29;20658;-77
2021/11/25 05:47:24;;;;;;;26.17;17.73;;;;;;;5.63;65.57;95462.19;4894481;29;20111;-79
2021/11/25 05:49:50;;;;;;;28.70;17.95;;;;;;;5.58;66.14;95461.94;4877889;29;20512;-77
2021/11/25 05:52:15;;;;;;;26.52;16.40;;;;;;;5.67;65.25;95455.66;4893927;29;20033;-77
2021/11/25 05:54:41;;;;;;;25.75;17.33;;;;;;;5.85;64.48;95452.63;4875157;29;20033;-77
2021/11/25 05:57:06;;;;;;;25.58;17.20;;;;;;;5.95;64.67;95459.09;4877098;29;20100;-77
2021/11/25 05:59:32;;;;;;;28.45;16.48;;;;;;;5.95;64.31;95453.94;4877177;29;20048;-77
2021/11/25 06:01:57;;;;;;;28.48;17.73;;;;;;;6.05;63.72;95463.97;4876751;29;20037;-77
2021/11/25 06:04:23;;;;;;;22.42;15.48;;;;;;;6.15;63.76;95464.41;4861660;29;20049;-77
2021/11/25 06:06:49;;;;;;;26.33;16.60;;;;;;;6.10;63.37;95466.75;4877585;29;20408;-82
2021/11/25 06:09:14;;;;;;;27.40;18.38;;;;;;;6.08;63.87;95458.41;4864387;29;20470;-77
2021/11/25 06:11:39;;;;;;;29.55;16.38;;;;;;;6.21;63.57;95470.63;4905141;29;20063;-77
2021/11/25 06:14:05;;;;;;;25.10;15.95;;;;;;;6.37;62.84;95472.13;4903225;29;20039;-77
2021/11/25 06:16:30;;;;;;;24.77;17.60;;;;;;;6.30;63.05;95478.03;4886834;29;20114;-77
2021/11/25 06:18:56;;;;;;;23.45;16.23;;;;;;;6.17;63.53;95477.13;4881588;29;20071;-77
2021/11/25 06:21:21;;;;;;;29.70;18.30;;;;;;;6.27;62.85;95477.59;4864477;29;20926;-78
2021/11/25 06:23:46;;;;;;;25.10;16.48;;;;;;;6.42;62.78;95480.88;4896868;29;20496;-77
2021/11/25 06:26:12;;;;;;;26.48;15.98;;;;;;;6.55;62.10;95486.16;4880709;29;20466;-77
2021/11/25 06:28:38;;;;;;;26.25;16.50;;;;;;;6.69;61.82;95487.03;4896832;29;20397;-77
2021/11/25 06:31:03;;;;;;;22.50;15.27;;;;;;;6.92;61.37;95482.34;4879695;29;20048;-77
2021/11/25 06:33:28;;;;;;;20.73;15.68;;;;;;;6.86;60.81;95474.56;4864713;29;20041;-77
2021/11/25 06:35:54;;;;;;;23.08;15.65;;;;;;;6.93;60.42;95477.97;4879725;29;20111;-77
2021/11/25 06:38:20;;;;;;;33.95;16.65;;;;;;;7.02;60.45;95468.28;4896600;29;20449;-77
2021/11/25 06:40:46;;;;;;;27.48;16.63;;;;;;;6.84;60.49;95479.16;4879812;29;20043;-77
2021/11/25 06:43:11;;;;;;;26.42;16.95;;;;;;;6.93;60.58;95480.56;4878843;29;20044;-77
2021/11/25 06:45:37;;;;;;;26.67;16.13;;;;;;;6.90;60.41;95480.94;4848925;29;20731;-77
2021/11/25 06:48:03;;;;;;;22.38;15.25;;;;;;;6.93;60.31;95488.31;4896528;29;20025;-77
2021/11/25 06:50:28;;;;;;;20.45;15.80;;;;;;;6.98;60.50;95479.97;4880210;29;20036;-77
2021/11/25 06:52:54;;;;;;;26.05;16.48;;;;;;;6.91;60.35;95478.16;4878439;29;20045;-77
2021/11/25 06:55:20;;;;;;;22.30;15.65;;;;;;;6.93;60.01;95480.56;4864160;29;20489;-77
2021/11/25 06:57:49;;;;;;;28.52;15.40;;;;;;;6.84;60.68;95477.34;4896318;29;20033;-77
2021/11/25 07:00:15;;;;;;;23.58;15.32;;;;;;;6.79;61.14;95481.47;4879428;29;20029;-77
2021/11/25 07:02:41;;;;;;;23.60;16.13;;;;;;;6.67;61.20;95478.66;4855861;29;20048;-77
2021/11/25 07:05:07;;;;;;;25.55;16.58;;;;;;;6.78;61.39;95485.06;4893903;29;20032;-78
2021/11/25 07:07:33;;;;;;;25.08;15.60;;;;;;;6.82;60.70;95478.50;4863107;29;20032;-77
2021/11/25 07:09:59;;;;;;;24.42;15.95;;;;;;;6.93;60.31;95483.16;4879570;29;20190;-77
2021/11/25 07:12:24;;;;;;;29.30;15.48;;;;;;;6.81;60.71;95480.28;4879031;29;20444;-77
2021/11/25 07:14:50;;;;;;;24.73;14.93;;;;;;;6.79;60.59;95476.31;4864068;29;20060;-77
2021/11/25 07:17:15;;;;;;;25.73;16.95;;;;;;;6.82;60.95;95473.34;4879152;29;20045;-78
2021/11/25 07:19:41;;;;;;;20.80;15.63;;;;;;;7.07;60.92;95476.25;4885918;29;20541;-81
2021/11/25 07:22:06;;;;;;;21.15;15.10;;;;;;;7.13;60.71;95471.09;4893781;29;20156;-79
2021/11/25 07:24:32;;;;;;;23.23;15.25;;;;;;;7.20;60.44;95469.34;4884737;29;20059;-78
2021/11/25 07:26:57;;;;;;;25.90;14.25;;;;;;;7.05;60.48;95465.31;4903402;29;20040;-78
2021/11/25 07:29:23;;;;;;;26.00;14.35;;;;;;;6.80;61.44;95468.38;4855801;29;20051;-79
2021/11/25 07:31:48;;;;;;;25.60;15.10;;;;;;;6.81;61.41;95469.16;4867665;29;20519;-79
2021/11/25 07:34:14;;;;;;;27.10;16.00;;;;;;;6.86;61.28;95472.00;4851632;29;20052;-79
2021/11/25 07:36:40;;;;;;;24.25;16.13;;;;;;;7.04;60.65;95468.88;4899883;29;20039;-81
2021/11/25 07:39:05;;;;;;;26.23;15.60;;;;;;;7.08;60.63;95470.88;4900289;29;20052;-79
2021/11/25 07:41:33;;;;;;;23.40;14.15;;;;;;;7.05;60.34;95473.84;4852572;29;20124;-79
2021/11/25 07:43:59;;;;;;;19.77;14.05;;;;;;;7.11;60.12;95465.31;4881705;29;20040;-79
2021/11/25 07:46:25;;;;;;;18.95;12.73;;;;;;;7.08;60.26;95470.88;4881952;29;20511;-79
2021/11/25 07:48:50;;;;;;;19.38;13.63;;;;;;;6.81;60.36;95469.16;4867351;29;20104;-79
2021/11/25 07:51:16;;;;;;;20.88;14.02;;;;;;;6.75;60.73;95462.19;4867342;29;20040;-79
2021/11/25 07:53:41;;;;;;;28.63;15.30;;;;;;;6.77;61.26;95462.78;4867378;29;20039;-79
2021/11/25 07:56:07;;;;;;;19.55;14.55;;;;;;;6.84;61.16;95463.63;4866941;29;20048;-79
2021/11/25 07:58:32;;;;;;;20.58;14.48;;;;;;;6.90;60.51;95462.84;4882336;29;20127;-78
2021/11/25 08:00:58;;;;;;;20.77;14.45;;;;;;;7.06;60.55;95462.53;4899111;29;20107;-78
2021/11/25 08:03:24;;;;;;;28.92;14.80;;;;;;;7.10;60.09;95458.53;4867099;29;20047;-78
2021/11/25 08:05:49;;;;;;;25.23;14.68;;;;;;;7.31;58.96;95454.22;4866787;29;20116;-78
2021/11/25 08:08:15;;;;;;;20.02;14.52;;;;;;;7.27;59.56;95442.69;4866298;29;20064;-78
2021/11/25 08:10:41;;;;;;;21.92;14.32;;;;;;;7.39;58.75;95451.47;4866715;29;20052;-78
2021/11/25 08:13:07;;;;;;;21.90;13.05;;;;;;;7.45;58.67;95442.91;4882016;29;20061;-79
2021/11/25 08:15:32;;;;;;;17.63;13.05;;;;;;;7.35;58.58;95434.75;4850905;29;20115;-79
2021/11/25 08:17:58;;;;;;;15.60;11.70;;;;;;;7.10;58.91;95443.03;4866965;29;20082;-79
2021/11/25 08:20:26;;;;;;;19.17;11.98;;;;;;;6.95;59.43;95444.97;4881907;29;20036;-78
2021/11/25 08:22:52;;;;;;;17.65;11.80;;;;;;;6.88;59.74;95439.78;4867032;29;20083;-79
2021/11/25 08:25:17;;;;;;;26.10;13.02;;;;;;;6.87;60.12;95442.56;4851992;29;20512;-78
2021/11/25 08:27:46;;;;;;;21.17;13.73;;;;;;;6.87;59.81;95434.81;4881059;29;20511;-78
2021/11/25 08:30:14;;;;;;;19.10;13.18;;;;;;;7.07;59.18;95432.28;4866810;29;20408;-79
2021/11/25 08:32:40;;;;;;;17.75;11.77;;;;;;;7.22;58.78;95431.13;4881184;29;20036;-78
2021/11/25 08:35:06;;;;;;;16.48;12.15;;;;;;;7.28;58.38;95424.38;4881920;29;20032;-79
2021/11/25 08:37:32;;;;;;;14.80;11.98;;;;;;;7.20;58.36;95427.94;4865544;29;20048;-78
2021/11/25 08:39:58;;;;;;;16.60;12.43;;;;;;;7.18;58.71;95421.38;4883096;29;20045;-79
2021/11/25 08:42:24;;;;;;;25.42;13.55;;;;;;;7.11;59.21;95418.75;4865472;29;20196;-79
2021/11/25 08:44:49;;;;;;;24.65;13.48;;;;;;;7.26;58.67;95418.59;4858182;29;20053;-78
2021/11/25 08:47:15;;;;;;;22.67;13.43;;;;;;;7.24;58.67;95402.47;4897668;29;20501;-78
2021/11/25 08:49:40;;;;;;;22.73;13.32;;;;;;;7.44;58.15;95397.34;4879941;29;20047;-79
2021/11/25 08:52:06;;;;;;;16.88;11.98;;;;;;;7.39;58.57;95397.13;4881187;29;20044;-78
2021/11/25 08:54:31;;;;;;;20.63;12.23;;;;;;;7.04;58.75;95404.22;4881729;29;20047;-80
2021/11/25 08:56:57;;;;;;;22.10;12.80;;;;;;;6.92;59.54;95404.78;4868378;29;20025;-79
2021/11/25 08:59:22;;;;;;;22.17;13.13;;;;;;;6.96;59.21;95402.59;4851597;29;20469;-78
2021/11/25 09:01:48;;;;;;;16.23;13.05;;;;;;;7.20;58.75;95391.75;4881794;29;20037;-79
2021/11/25 09:04:14;;;;;;;21.05;12.40;;;;;;;7.29;58.71;95396.72;4898157;29;20040;-78
2021/11/25 09:06:39;;;;;;;14.98;12.35;;;;;;;7.17;58.48;95397.31;4880831;29;20479;-78
2021/11/25 09:09:05;;;;;;;19.48;11.82;;;;;;;7.33;58.60;95385.78;4898038;29;20043;-78
2021/11/25 09:11:35;;;;;;;18.02;13.65;;;;;;;7.30;58.38;95390.53;4864735;29;20108;-78
2021/11/25 09:14:01;;;;;;;25.65;12.25;;;;;;;7.26;58.64;95373.84;4866275;29;20033;-78
2021/11/25 09:16:29;;;;;;;23.98;13.52;;;;;;;7.20;58.80;95381.41;4881464;29;20037;-79
2021/11/25 09:18:55;;;;;;;15.63;12.23;;;;;;;7.13;58.39;95383.16;4898353;29;20043;-78
2021/11/25 09:21:21;;;;;;;16.50;11.80;;;;;;;7.10;58.85;95388.72;4897692;29;20037;-78
2021/11/25 09:23:48;;;;;;;15.77;11.50;;;;;;;7.06;58.86;95384.94;4898460;29;20025;-78
2021/11/25 09:26:13;;;;;;;16.98;12.40;;;;;;;7.03;59.22;95380.16;4880816;29;20523;-78
2021/11/25 09:28:39;;;;;;;13.55;11.63;;;;;;;6.88;59.45;95376.94;4880814;29;20033;-79
2021/11/25 09:31:06;;;;;;;14.70;10.70;;;;;;;6.80;59.62;95385.66;4880418;29;20409;-78
2021/11/25 09:33:32;;;;;;;13.75;10.98;;;;;;;6.78;59.42;95381.66;4866988;29;20037;-82
2021/11/25 09:35:57;;;;;;;14.60;11.05;;;;;;;6.76;59.61;95375.91;4867256;29;20091;-81
2021/11/25 09:38:23;;;;;;;21.92;11.18;;;;;;;6.68;60.13;95373.50;4881728;29;20033;-81
2021/11/25 09:40:49;;;;;;;15.20;10.90;;;;;;;6.64;60.04;95373.06;4851928;29;20032;-81
2021/11/25 09:43:20;;;;;;;16.83;10.82;;;;;;;6.64;60.30;95365.31;4865716;29;20108;-81
2021/11/25 09:45:49;;;;;;;16.60;12.57;;;;;;;6.69;60.28;95367.34;4869357;29;20028;-81
2021/11/25 09:48:15;;;;;;;18.52;11.30;;;;;;;6.80;60.16;95364.97;4885292;29;20800;-81
2021/11/25 09:50:44;;;;;;;15.38;11.18;;;;;;;6.99;59.04;95368.59;4885669;29;20040;-82
2021/11/25 09:53:10;;;;;;;21.13;11.80;;;;;;;6.90;59.68;95374.97;4872995;29;20421;-82
2021/11/25 09:55:37;;;;;;;19.50;12.32;;;;;;;7.04;59.08;95368.81;4886571;29;20040;-82
2021/11/25 09:58:04;;;;;;;19.80;12.13;;;;;;;7.09;59.00;95363.06;4869215;29;20038;-83
2021/11/25 10:00:31;;;;;;;21.30;13.30;;;;;;;7.01;59.32;95356.28;4868927;29;20108;-80
2021/11/25 10:02:57;;;;;;;23.98;12.95;;;;;;;7.19;58.91;95359.13;4871481;29;20421;-81
2021/11/25 10:05:22;;;;;;;14.95;11.13;;;;;;;7.28;58.43;95361.50;4885208;29;20021;-80
2021/11/25 10:07:48;;;;;;;17.50;12.25;;;;;;;7.32;58.33;95357.50;4858541;29;20064;-82
2021/11/25 10:10:32;;;;;;;18.50;11.98;;;;;;;7.48;58.13;95362.28;4871888;29;20028;-80
2021/11/25 10:13:12;;;;;;;21.20;11.52;;;;;;;7.56;57.23;95356.94;4884387;29;20484;-82
2021/11/25 10:15:38;;;;;;;18.70;11.70;;;;;;;7.46;57.73;95357.31;4871259;29;20060;-83
2021/11/25 10:18:06;;;;;;;14.95;11.18;;;;;;;7.52;57.45;95348.00;4854697;29;20032;-81
2021/11/25 10:20:34;;;;;;;19.63;12.30;;;;;;;7.58;56.94;95338.63;4870106;29;20080;-82
2021/11/25 10:23:02;;;;;;;24.90;13.25;;;;;;;7.74;57.13;95335.63;4854987;29;20092;-83
2021/11/25 10:25:42;;;;;;;15.63;11.75;;;;;;;7.86;56.89;95334.03;4900438;29;20075;-82
2021/11/25 10:28:10;;;;;;;13.40;10.52;;;;;;;7.78;56.44;95337.59;4853089;29;20025;-82
2021/11/25 10:30:36;;;;;;;17.42;11.73;;;;;;;7.78;56.61;95322.06;4869930;29;20103;-83
2021/11/25 10:33:02;;;;;;;15.32;10.82;;;;;;;7.89;55.77;95325.06;4869925;29;20056;-83
2021/11/25 10:35:33;;;;;;;18.83;10.77;;;;;;;7.91;56.15;95325.63;4868821;29;20060;-82
2021/11/25 10:38:20;;;;;;;18.20;10.05;;;;;;;7.83;56.31;95324.88;4883891;29;20033;-82
2021/11/25 10:40:44;;;;;;;13.18;10.88;;;;;;;7.87;55.54;95319.28;4887843;29;20044;-82
2021/11/25 10:43:24;;;;;;;13.60;10.23;;;;;;;7.85;56.14;95313.50;4885164;29;20047;-81
2021/11/25 10:45:53;;;;;;;12.38;10.35;;;;;;;7.79;56.31;95313.31;4898446;29;20029;-82
2021/11/25 10:48:44;;;;;;;12.85;10.52;;;;;;;7.79;56.31;95305.53;4853275;29;20060;-83
2021/11/25 10:51:30;;;;;;;19.38;11.02;;;;;;;7.78;56.52;95310.91;4880535;29;20052;-81
2021/11/25 10:54:10;;;;;;;17.30;11.80;;;;;;;7.65;56.53;95304.00;4869236;29;20043;-82
2021/11/25 10:56:44;;;;;;;14.90;11.00;;;;;;;7.82;56.38;95297.38;4885201;29;20029;-81
2021/11/25 10:59:11;;;;;;;14.95;11.80;;;;;;;7.67;56.45;95299.41;4877612;29;20556;-81
2021/11/25 11:01:44;;;;;;;17.73;12.10;;;;;;;7.60;56.94;95298.59;4873351;29;20513;-81
2021/11/25 11:04:11;;;;;;;20.58;11.82;;;;;;;7.68;56.52;95295.81;4871071;29;20036;-81
2021/11/25 11:06:37;;;;;;;34.33;12.75;;;;;;;7.70;56.86;95290.44;4852244;29;20063;-82
2021/11/25 11:09:05;;;;;;;16.48;11.40;;;;;;;7.63;56.95;95298.19;4852656;29;20651;-81
2021/11/25 11:11:32;;;;;;;15.60;10.15;;;;;;;7.47;57.48;95283.09;4884853;29;20481;-82
2021/11/25 11:14:16;;;;;;;15.38;10.60;;;;;;;7.55;57.52;95285.47;4869995;29;20033;-82
2021/11/25 11:16:48;;;;;;;17.60;11.52;;;;;;;7.62;57.27;95290.63;4870466;29;20041;-81
2021/11/25 11:19:14;;;;;;;16.90;10.70;;;;;;;7.64;57.51;95273.91;4870686;29;20037;-82
2021/11/25 11:21:50;;;;;;;14.02;10.63;;;;;;;7.76;57.00;95274.09;4887571;29;20040;-81
2021/11/25 11:24:30;;;;;;;12.77;10.52;;;;;;;7.46;57.68;95271.94;4892347;29;20045;-81
2021/11/25 11:27:02;;;;;;;12.38;9.95;;;;;;;7.49;57.73;95263.78;4874586;29;20052;-81
2021/11/25 11:29:32;;;;;;;20.13;10.77;;;;;;;7.55;57.34;95269.16;4883181;29;20580;-81
2021/11/25 11:32:04;;;;;;;20.20;11.73;;;;;;;7.62;56.85;95257.78;4866712;29;20500;-80
2021/11/25 11:34:29;;;;;;;24.55;10.50;;;;;;;7.54;57.29;95255.41;4868830;29;20029;-83